x

9410840 - Santa Monica Pier (icac1) Weather Station

1:54pm - Tue 16th Oct 2018 All times are PDT. -7 hours from GMT.

  • Wind
    8mph, 9mph gusts
  • Sea Temp 65°f
  • Air Temp 69°f
  • Sea Pressure 1015.8mb
  • 9410840 - Santa Monica Pier
  • 9410840 - Santa Monica Pier

More Historic Weather Station data

Upgrade to MSW Pro to gain access to the past 30 days of data for over 8000 Wavebouys and Weather Stations around the globe.

Join

Comparision Forecast

View Surf forecast
   
Tue 10/16 1:54pm 8 9 mph 1015.8mb 65f 69f
1:48pm 7 9 mph 1015.9mb 65f 69f
1:42pm 9 16 mph 1016mb 65f 70f
1:36pm 13 14 mph 1015.9mb 65f 69f
1:30pm 8 9 mph 1016.2mb 65f 69f
1:24pm 8 10 mph 1016.4mb 65f 70f
1:18pm 10 13 mph 1016.3mb 65f 69f
1:12pm 11 14 mph 1016.3mb 64f 69f
1:06pm 10 14 mph 1016.4mb 64f 69f
1:00pm 13 14 mph 1016.5mb 64f 69f
12:54pm 9 13 mph 1016.6mb 64f 69f
12:48pm 9 10 mph 1016.7mb 64f 69f
12:42pm 9 11 mph 1016.7mb 64f 69f
12:36pm 10 13 mph 1016.7mb 64f 69f
12:30pm 11 13 mph 1016.7mb 64f 69f
12:24pm 10 13 mph 1016.8mb 64f 69f
12:18pm 10 11 mph 1016.9mb 64f 69f
12:12pm 10 13 mph 1016.9mb 64f 70f
12:06pm 13 14 mph 1017mb 64f 71f
12:00pm 13 14 mph 1017mb 64f 70f
11:54am 7 8 mph 1017.2mb 64f 68f
11:48am 3 5 mph 1017.3mb 64f 67f
11:42am 3 6 mph 1017.4mb 64f 67f
11:36am 6 6 mph 1017.4mb 64f 67f
11:30am 5 6 mph 1017.5mb 64f 68f
11:24am 1 3 mph 1017.7mb 64f 71f
11:18am 3 3 mph 1017.6mb 64f 69f
11:12am 2 3 mph 1017.6mb 64f 67f
11:06am 1 3 mph 1017.7mb 64f 68f
11:00am 2 3 mph 1017.7mb 63f 67f
10:54am 2 3 mph 1017.7mb 63f 67f
10:48am 2 3 mph 1017.8mb 63f 67f
10:42am 2 3 mph 1017.8mb 63f 66f
10:36am 2 5 mph 1017.9mb 63f 66f
10:30am 3 5 mph 1018mb 63f 65f
10:24am 5 5 mph 1018mb 63f 65f
10:18am 5 6 mph 1018.1mb 63f 65f
10:12am 7 9 mph 1018.1mb 63f 65f
10:06am 6 7 mph 1018.1mb 63f 65f
10:00am 6 7 mph 1018.1mb 63f 66f
9:18am 2 3 mph 1018.2mb 62f 67f
9:12am 2 5 mph 1018.2mb 62f 66f
9:06am 5 6 mph 1018.2mb 62f 65f
9:00am 2 3 mph 1018.1mb 62f 65f
8:54am 3 3 mph 1018.1mb 62f 64f
8:48am 3 5 mph 1018mb 62f 64f
8:42am 1 2 mph 1018mb 62f 64f
8:36am 2 6 mph 1017.9mb 62f 63f
8:30am 5 6 mph 1017.9mb 62f 62f
8:24am  -  2 mph 1017.8mb 62f 64f
8:18am 2 5 mph 1017.7mb 62f 64f
8:12am  -  3 mph 1017.7mb 62f 65f
8:06am 1 3 mph 1017.5mb 62f 64f
8:00am 2 3 mph 1017.6mb 62f 63f
7:54am 5 6 mph 1017.5mb 62f 61f
7:48am 1 6 mph 1017.5mb 62f 62f
7:42am 6 7 mph 1017.3mb 62f 61f
7:36am 5 6 mph 1017.3mb 62f 61f
7:30am 5 6 mph 1017.2mb 62f 60f
7:24am 6 7 mph 1017.2mb 62f 60f
7:18am 2 6 mph 1017.2mb 62f 60f
7:12am 5 6 mph 1017.2mb 62f 60f
7:06am 2 6 mph 1017.2mb 62f 60f
7:00am 6 8 mph 1017.2mb 62f 60f
6:54am 3 8 mph 1017.2mb 62f 60f
6:48am 7 9 mph 1017mb 62f 61f
6:42am 6 8 mph 1017.1mb 62f 61f
6:36am 8 10 mph 1017mb 62f 62f
6:30am 7 10 mph 1017mb 62f 61f
6:24am 8 11 mph 1016.9mb 62f 62f
6:18am 8 10 mph 1016.9mb 62f 62f
6:12am 8 10 mph 1016.7mb 62f 62f
6:06am 9 10 mph 1016.7mb 62f 63f
6:00am 8 9 mph 1016.7mb 62f 63f
5:48am 9 11 mph 1016.6mb 62f 61f
5:42am 7 10 mph 1016.5mb 62f 60f
5:36am 6 7 mph 1016.4mb 62f 60f
5:30am 5 8 mph 1016.3mb 62f 61f
5:24am 7 11 mph 1016.2mb 62f 66f
5:18am 9 13 mph 1016.2mb 62f 67f
5:12am 10 13 mph 1016.1mb 62f 66f
5:06am 7 9 mph 1016.1mb 62f 65f
5:00am 8 13 mph 1016.1mb 62f 67f
4:54am 9 10 mph 1016.2mb 62f 65f
4:48am 6 8 mph 1016.2mb 62f 62f
4:42am 3 5 mph 1016.2mb 62f 62f
4:36am 5 6 mph 1016.3mb 62f 62f
4:30am 3 5 mph 1016.3mb 62f 62f
4:24am 2 5 mph 1016.3mb 62f 61f
4:18am 3 6 mph 1016.3mb 62f 60f
4:12am 2 5 mph 1016.4mb 62f 60f
4:06am 5 5 mph 1016.3mb 62f 60f
4:00am 5 6 mph 1016.3mb 62f 60f
3:54am 3 6 mph 1016.3mb 62f 59f
3:48am 5 6 mph 1016.3mb 62f 60f
3:42am 6 6 mph 1016.3mb 62f 59f
3:36am 3 3 mph 1016.4mb 62f 60f
3:30am 1 3 mph 1016.4mb 62f 61f
3:24am 2 5 mph 1016.4mb 62f 62f
3:18am 1 8 mph 1016.4mb 62f 62f
3:12am 5 7 mph 1016.4mb 62f 64f
3:06am 7 9 mph 1016.4mb 62f 65f
3:00am 5 9 mph 1016.5mb 62f 66f
2:54am 7 9 mph 1016.6mb 62f 66f
2:48am 7 10 mph 1016.6mb 62f 65f
2:42am 8 10 mph 1016.6mb 62f 65f
2:36am 8 8 mph 1016.6mb 62f 64f
2:30am 6 9 mph 1016.6mb 62f 66f
2:24am 7 8 mph 1016.6mb 62f 66f
2:18am 6 8 mph 1016.6mb 62f 66f
2:12am 6 7 mph 1016.7mb 62f 66f
2:06am 6 7 mph 1016.7mb 62f 66f
2:00am 6 7 mph 1016.7mb 62f 65f
1:54am 6 7 mph 1016.8mb 62f 65f
1:48am 5 6 mph 1016.8mb 62f 64f
1:42am 5 6 mph 1016.7mb 62f 64f
1:36am 3 7 mph 1016.7mb 62f 65f
1:30am 7 14 mph 1016.7mb 62f 65f
1:24am 10 13 mph 1016.7mb 62f 65f
1:18am 11 13 mph 1016.6mb 62f 65f
1:12am 9 10 mph 1016.6mb 62f 66f
1:06am 7 9 mph 1016.6mb 62f 65f
1:00am 7 9 mph 1016.7mb 62f 66f
12:18am 7 8 mph 1016.5mb 62f 70f
12:12am 6 9 mph 1016.6mb 62f 70f
12:06am 6 8 mph 1016.7mb 62f 70f